createdAt,value
2023-03-20T00:01:32.672Z,24.00
2023-03-20T00:04:01.982Z,20.40
2023-03-20T00:06:31.163Z,25.00
2023-03-20T00:09:07.531Z,18.80
2023-03-20T00:11:51.349Z,20.50
2023-03-20T00:14:26.738Z,22.00
2023-03-20T00:16:54.571Z,21.20
2023-03-20T00:19:30.623Z,21.30
2023-03-20T00:22:00.408Z,18.80
2023-03-20T00:24:29.733Z,17.40
2023-03-20T00:26:58.019Z,18.90
2023-03-20T00:29:35.408Z,15.00
2023-03-20T00:32:12.357Z,20.60
2023-03-20T00:34:40.452Z,12.80
2023-03-20T00:37:11.737Z,21.10
2023-03-20T00:39:43.519Z,16.10
2023-03-20T00:42:26.375Z,19.40
2023-03-20T00:44:59.881Z,21.00
2023-03-20T00:47:30.340Z,21.60
2023-03-20T00:50:00.214Z,18.50
2023-03-20T00:52:28.754Z,21.20
2023-03-20T00:54:57.344Z,22.00
2023-03-20T00:57:40.844Z,24.20
2023-03-20T01:00:29.760Z,19.40
2023-03-20T01:03:01.851Z,17.50
2023-03-20T01:05:29.964Z,19.20
2023-03-20T01:07:58.542Z,18.10
2023-03-20T01:10:33.262Z,19.50
2023-03-20T01:13:04.470Z,19.60
2023-03-20T01:15:38.004Z,20.40
2023-03-20T01:18:13.750Z,22.80
2023-03-20T01:20:44.060Z,20.40
2023-03-20T01:23:14.005Z,22.70
2023-03-20T01:25:42.694Z,17.80
2023-03-20T01:28:36.812Z,15.90
2023-03-20T01:31:07.401Z,15.50
2023-03-20T01:33:38.764Z,14.50
2023-03-20T01:36:10.247Z,18.00
2023-03-20T01:38:41.846Z,16.30
2023-03-20T01:41:19.169Z,19.00
2023-03-20T01:43:49.950Z,20.80
2023-03-20T01:46:31.780Z,20.80
2023-03-20T01:49:22.109Z,19.00
2023-03-20T01:51:52.669Z,23.00
2023-03-20T01:54:33.642Z,25.40
2023-03-20T01:57:25.129Z,19.60
2023-03-20T02:00:15.720Z,22.00
2023-03-20T02:02:48.965Z,24.70
2023-03-20T02:05:24.063Z,18.90
2023-03-20T02:08:24.095Z,15.10
2023-03-20T02:10:53.941Z,17.40
2023-03-20T02:13:22.957Z,12.30
2023-03-20T02:16:10.565Z,17.60
2023-03-20T02:18:42.594Z,16.70
2023-03-20T02:21:22.870Z,17.20
2023-03-20T02:24:34.100Z,20.60
2023-03-20T02:27:54.862Z,19.30
2023-03-20T02:31:13.860Z,18.70
2023-03-20T02:34:49.757Z,19.20
2023-03-20T02:37:54.902Z,9.90
2023-03-20T02:40:49.938Z,11.10
2023-03-20T02:43:23.729Z,13.90
2023-03-20T02:46:29.140Z,10.80
2023-03-20T02:49:28.972Z,9.60
2023-03-20T02:52:20.867Z,13.00
2023-03-20T02:55:33.902Z,14.20
2023-03-20T02:58:42.208Z,15.20
2023-03-20T03:01:19.944Z,14.50
2023-03-20T03:04:01.590Z,12.80
2023-03-20T03:06:39.847Z,17.80
2023-03-20T03:09:26.995Z,15.00
2023-03-20T03:12:22.784Z,18.00
2023-03-20T03:15:00.324Z,17.80
2023-03-20T03:17:35.083Z,10.90
2023-03-20T03:20:14.780Z,17.00
2023-03-20T03:22:43.308Z,15.70
2023-03-20T03:25:14.277Z,13.80
2023-03-20T03:27:48.051Z,11.60
2023-03-20T03:30:28.865Z,15.60
2023-03-20T03:33:12.075Z,14.60
2023-03-20T03:35:41.740Z,17.40
2023-03-20T03:38:40.580Z,21.50
2023-03-20T03:41:30.847Z,19.60
2023-03-20T03:44:19.947Z,15.40
2023-03-20T03:47:20.271Z,17.10
2023-03-20T03:49:59.988Z,16.80
2023-03-20T03:52:32.065Z,11.90
2023-03-20T03:55:20.038Z,8.00
2023-03-20T03:58:08.264Z,9.90
2023-03-20T04:00:44.825Z,15.40
2023-03-20T04:03:16.871Z,10.60
2023-03-20T04:05:50.556Z,11.90
2023-03-20T04:08:18.378Z,13.50
2023-03-20T04:10:46.453Z,13.50
2023-03-20T04:13:16.713Z,9.50
2023-03-20T04:15:45.530Z,5.60
2023-03-20T04:18:22.975Z,9.70
2023-03-20T04:20:52.691Z,14.80
2023-03-20T04:23:21.051Z,3.50
2023-03-20T04:25:51.058Z,5.90
2023-03-20T04:28:19.892Z,10.00
2023-03-20T04:30:59.519Z,7.60
2023-03-20T04:33:33.419Z,9.20
2023-03-20T04:36:01.435Z,6.90
2023-03-20T04:38:29.435Z,15.10
2023-03-20T04:41:00.254Z,10.30
2023-03-20T04:43:28.095Z,14.00
2023-03-20T04:45:59.792Z,10.90
2023-03-20T04:48:28.129Z,15.10
2023-03-20T04:50:57.471Z,13.50
2023-03-20T04:53:32.896Z,14.20
2023-03-20T04:56:02.143Z,10.20
2023-03-20T04:58:30.157Z,12.40
2023-03-20T05:01:01.087Z,12.60
2023-03-20T05:03:28.852Z,13.70
2023-03-20T05:05:56.650Z,10.60
2023-03-20T05:08:27.256Z,12.00
2023-03-20T05:10:55.859Z,13.30
2023-03-20T05:13:25.345Z,14.60
2023-03-20T05:15:53.215Z,12.80
2023-03-20T05:18:21.370Z,13.30
2023-03-20T05:20:50.531Z,11.80
2023-03-20T05:23:18.505Z,14.70
2023-03-20T05:25:48.213Z,10.70
2023-03-20T05:28:16.068Z,7.40
2023-03-20T05:30:44.412Z,6.30
2023-03-20T05:33:14.305Z,6.00
2023-03-20T05:35:42.403Z,6.50
2023-03-20T05:38:11.214Z,9.30
2023-03-20T05:40:39.175Z,9.60
2023-03-20T05:43:08.534Z,9.40
2023-03-20T05:45:37.190Z,7.80
2023-03-20T05:48:06.853Z,6.80
2023-03-20T05:50:34.819Z,6.40
2023-03-20T05:53:02.953Z,13.80
2023-03-20T05:55:33.456Z,10.60
2023-03-20T05:58:02.133Z,11.50
2023-03-20T06:00:29.985Z,12.30
2023-03-20T06:02:58.326Z,12.70
2023-03-20T06:05:26.918Z,11.30
2023-03-20T06:07:55.606Z,11.20
2023-03-20T06:10:26.479Z,10.10
2023-03-20T06:12:54.349Z,11.70
2023-03-20T06:15:23.712Z,10.30
2023-03-20T06:17:52.010Z,7.70
2023-03-20T06:20:20.220Z,7.20
2023-03-20T06:22:48.652Z,9.20
2023-03-20T06:25:16.861Z,8.30
2023-03-20T06:27:48.100Z,10.40
2023-03-20T06:30:17.542Z,8.30
2023-03-20T06:32:46.029Z,6.40
2023-03-20T06:35:15.226Z,5.00
2023-03-20T06:37:43.409Z,6.50
2023-03-20T06:40:12.346Z,8.70
2023-03-20T06:42:40.241Z,7.80
2023-03-20T06:45:11.352Z,8.10
2023-03-20T06:47:39.531Z,9.90
2023-03-20T06:50:10.427Z,7.80
2023-03-20T06:52:39.971Z,5.90
2023-03-20T06:55:11.019Z,7.40
2023-03-20T06:57:39.230Z,5.90
2023-03-20T07:00:11.278Z,5.70
2023-03-20T07:02:39.345Z,5.40
2023-03-20T07:05:08.228Z,4.30
2023-03-20T07:07:38.704Z,5.80
2023-03-20T07:10:07.929Z,4.20
2023-03-20T07:12:35.991Z,6.40
2023-03-20T07:15:07.106Z,3.80
2023-03-20T07:20:17.522Z,7.30
2023-03-20T07:22:46.766Z,4.90
2023-03-20T07:25:15.479Z,6.80
2023-03-20T07:27:46.741Z,6.60
2023-03-20T07:30:16.785Z,5.30
2023-03-20T07:32:47.206Z,4.80
2023-03-20T07:35:18.228Z,7.10
2023-03-20T07:37:46.487Z,3.50
2023-03-20T07:40:17.521Z,6.00
2023-03-20T07:42:48.261Z,6.20
2023-03-20T07:45:19.118Z,5.60
2023-03-20T07:47:50.157Z,4.80
2023-03-20T07:50:19.537Z,5.80
2023-03-20T07:52:55.160Z,6.70
2023-03-20T07:55:25.812Z,5.80
2023-03-20T07:57:54.313Z,5.90
2023-03-20T08:00:29.404Z,6.50
2023-03-20T08:02:57.995Z,5.40
2023-03-20T08:05:26.707Z,4.70
2023-03-20T08:07:57.456Z,4.60
2023-03-20T08:10:26.437Z,4.00
2023-03-20T08:12:56.217Z,0.80
2023-03-20T08:15:24.825Z,4.40
2023-03-20T08:17:52.607Z,3.50
2023-03-20T08:20:20.399Z,4.10
2023-03-20T08:22:49.790Z,5.10
2023-03-20T08:25:17.675Z,3.60
2023-03-20T08:27:45.489Z,4.00
2023-03-20T08:30:15.835Z,3.80
2023-03-20T08:32:44.114Z,3.60
2023-03-20T08:35:25.766Z,2.40
2023-03-20T08:38:00.119Z,2.30
2023-03-20T08:40:31.802Z,2.20
2023-03-20T08:43:00.438Z,4.20
2023-03-20T08:45:28.751Z,4.00
2023-03-20T08:47:57.521Z,4.40
2023-03-20T08:50:25.520Z,4.40
2023-03-20T08:52:54.805Z,4.00
2023-03-20T08:55:23.994Z,7.70
2023-03-20T08:57:52.124Z,4.80
2023-03-20T09:00:20.802Z,6.30
2023-03-20T09:02:49.749Z,10.00
2023-03-20T09:05:18.011Z,7.40
2023-03-20T09:07:46.665Z,8.90
2023-03-20T09:10:14.821Z,8.00
2023-03-20T09:12:52.281Z,8.10
2023-03-20T09:15:20.635Z,5.70
2023-03-20T09:17:49.828Z,6.70
2023-03-20T09:20:22.149Z,8.30
2023-03-20T09:22:50.280Z,5.40
2023-03-20T09:25:18.517Z,4.60
2023-03-20T09:27:46.827Z,6.60
2023-03-20T09:30:16.812Z,6.40
2023-03-20T09:32:44.902Z,5.20
2023-03-20T09:35:15.832Z,5.90
2023-03-20T09:37:44.146Z,2.20
2023-03-20T09:40:30.778Z,5.60
2023-03-20T09:43:42.484Z,4.50
2023-03-20T09:46:22.280Z,3.70
2023-03-20T09:49:12.717Z,5.70
2023-03-20T09:51:52.973Z,1.50
2023-03-20T09:54:54.400Z,4.00
2023-03-20T09:57:34.191Z,4.00
2023-03-20T10:00:20.460Z,3.80
2023-03-20T10:03:04.987Z,3.30
2023-03-20T10:05:52.899Z,2.90
2023-03-20T10:08:32.049Z,2.50
2023-03-20T10:11:16.721Z,2.60
2023-03-20T10:14:22.790Z,2.90
2023-03-20T10:17:18.612Z,2.40
2023-03-20T10:20:21.884Z,10.00
2023-03-20T10:22:59.792Z,2.30
2023-03-20T10:25:34.098Z,5.20
2023-03-20T10:28:14.347Z,2.20
2023-03-20T10:31:44.702Z,3.40
2023-03-20T10:34:42.129Z,2.00
2023-03-20T10:37:38.733Z,2.40
2023-03-20T10:40:32.018Z,1.60
2023-03-20T10:45:43.541Z,1.80
2023-03-20T10:48:28.438Z,3.70
2023-03-20T10:51:02.332Z,2.80
2023-03-20T10:54:02.312Z,3.10
2023-03-20T10:56:38.008Z,2.80
2023-03-20T10:59:24.407Z,2.70
2023-03-20T11:01:53.253Z,2.90
2023-03-20T11:04:22.620Z,3.00
2023-03-20T11:07:12.378Z,1.90
2023-03-20T11:09:42.749Z,2.20
2023-03-20T11:12:21.127Z,2.20
2023-03-20T11:14:49.351Z,2.20
2023-03-20T11:17:20.430Z,3.10
2023-03-20T11:19:53.080Z,2.30
2023-03-20T11:22:30.115Z,2.70
2023-03-20T11:25:03.183Z,2.70
2023-03-20T11:27:34.854Z,2.40
2023-03-20T11:30:16.122Z,2.80
2023-03-20T11:32:51.867Z,2.50
2023-03-20T11:35:26.315Z,2.00
2023-03-20T11:38:11.447Z,2.10
2023-03-20T11:40:39.999Z,1.60
2023-03-20T11:43:19.022Z,1.70
2023-03-20T11:45:57.764Z,1.60
2023-03-20T11:48:41.751Z,1.50
2023-03-20T11:51:21.749Z,1.30
2023-03-20T11:53:50.718Z,1.40
2023-03-20T11:56:29.346Z,1.60
2023-03-20T11:59:09.342Z,1.30
2023-03-20T12:01:48.942Z,1.40
2023-03-20T12:04:42.995Z,1.30
2023-03-20T12:07:28.289Z,1.40
2023-03-20T12:10:20.280Z,1.10
2023-03-20T12:13:11.209Z,0.90
2023-03-20T12:15:51.927Z,1.60
2023-03-20T12:18:55.773Z,2.20
2023-03-20T12:22:04.372Z,0.80
2023-03-20T12:25:02.585Z,0.70
2023-03-20T12:27:40.068Z,1.00
2023-03-20T12:30:28.581Z,1.00
2023-03-20T12:33:43.056Z,0.70
2023-03-20T12:36:17.805Z,1.20
2023-03-20T12:38:46.326Z,1.00
2023-03-20T12:42:14.387Z,0.60
2023-03-20T12:45:01.216Z,0.50
2023-03-20T12:48:02.383Z,0.30
2023-03-20T12:50:38.254Z,1.10
2023-03-20T12:53:43.194Z,0.50
2023-03-20T12:56:23.183Z,0.70
2023-03-20T12:59:01.872Z,0.70
2023-03-20T13:01:57.796Z,0.50
2023-03-20T13:07:22.858Z,0.40
2023-03-20T13:10:19.004Z,0.40
2023-03-20T13:12:53.733Z,0.40
2023-03-20T13:18:18.763Z,0.50
2023-03-20T13:20:57.114Z,0.40
2023-03-20T13:24:03.540Z,0.40
2023-03-20T13:27:07.104Z,2.20
2023-03-20T13:30:15.694Z,0.40
2023-03-20T13:33:05.273Z,0.30
2023-03-20T13:36:02.990Z,0.50
2023-03-20T13:38:40.443Z,0.50
2023-03-20T13:41:10.627Z,1.00
2023-03-20T13:43:57.041Z,0.60
2023-03-20T13:47:06.551Z,0.30
2023-03-20T13:50:05.076Z,2.90
2023-03-20T13:52:49.635Z,0.40
2023-03-20T13:55:49.129Z,0.40
2023-03-20T13:58:44.383Z,0.30
2023-03-20T14:01:56.925Z,0.60
2023-03-20T14:04:29.949Z,0.50
2023-03-20T14:07:03.402Z,0.30
2023-03-20T14:09:35.853Z,0.30
2023-03-20T14:12:13.386Z,0.50
2023-03-20T14:14:55.709Z,0.30
2023-03-20T14:17:28.719Z,0.40
2023-03-20T14:20:13.982Z,0.40
2023-03-20T14:22:45.486Z,0.50
2023-03-20T14:25:21.010Z,0.30
2023-03-20T14:28:10.954Z,0.30
2023-03-20T14:30:47.832Z,0.50
2023-03-20T14:33:21.143Z,0.40
2023-03-20T14:36:12.904Z,0.30
2023-03-20T14:39:18.571Z,0.40
2023-03-20T14:42:34.206Z,0.50
2023-03-20T14:45:52.701Z,0.20
2023-03-20T14:48:52.945Z,0.30
2023-03-20T14:51:48.373Z,0.40
2023-03-20T14:54:22.252Z,0.70
2023-03-20T14:57:01.354Z,0.50
2023-03-20T14:59:36.162Z,0.40
2023-03-20T15:02:06.993Z,0.50
2023-03-20T15:04:41.097Z,0.60
2023-03-20T15:07:27.233Z,0.40
2023-03-20T15:10:02.936Z,0.30
2023-03-20T15:12:37.350Z,0.50
2023-03-20T15:15:22.712Z,0.30
2023-03-20T15:17:54.062Z,1.20
2023-03-20T15:20:32.081Z,2.70
2023-03-20T15:23:03.316Z,1.60
2023-03-20T15:25:51.132Z,0.30
2023-03-20T15:28:26.877Z,0.40
2023-03-20T15:33:42.255Z,0.40
2023-03-20T15:36:20.283Z,0.50
2023-03-20T15:38:53.169Z,0.40
2023-03-20T15:41:34.404Z,0.50
2023-03-20T15:44:24.254Z,0.40
2023-03-20T15:47:17.487Z,0.50
2023-03-20T15:49:55.089Z,0.40
2023-03-20T15:52:31.178Z,1.40
2023-03-20T15:55:05.811Z,5.20
2023-03-20T15:57:38.734Z,1.00
2023-03-20T16:00:15.994Z,0.50
2023-03-20T16:02:48.605Z,1.40
2023-03-20T16:05:18.796Z,0.50
2023-03-20T16:07:47.451Z,0.60
2023-03-20T16:10:22.612Z,0.60
2023-03-20T16:12:55.689Z,0.60
2023-03-20T16:15:29.837Z,0.50
2023-03-20T16:20:38.912Z,0.60
2023-03-20T16:23:09.826Z,0.70
2023-03-20T16:25:38.366Z,1.00
2023-03-20T16:28:07.336Z,0.90
2023-03-20T16:30:36.393Z,0.90
2023-03-20T16:33:19.249Z,0.60
2023-03-20T16:35:51.977Z,0.90
2023-03-20T16:38:33.864Z,0.70
2023-03-20T16:41:31.847Z,0.90
2023-03-20T16:44:18.363Z,1.50
2023-03-20T16:47:23.613Z,0.70
2023-03-20T16:49:54.724Z,1.10
2023-03-20T16:52:33.891Z,2.60
2023-03-20T16:55:02.054Z,1.90
2023-03-20T16:57:37.185Z,1.60
2023-03-20T17:00:23.065Z,1.40
2023-03-20T17:03:19.203Z,1.80
2023-03-20T17:05:51.945Z,2.00
2023-03-20T17:09:09.249Z,1.20
2023-03-20T17:11:45.778Z,4.90
2023-03-20T17:14:13.605Z,2.00
2023-03-20T17:16:44.136Z,2.00
2023-03-20T17:19:20.407Z,0.70
2023-03-20T17:21:49.768Z,1.40
2023-03-20T17:24:18.428Z,1.40
2023-03-20T17:27:03.914Z,2.00
2023-03-20T17:29:31.756Z,3.00
2023-03-20T17:32:01.686Z,6.00
2023-03-20T17:34:31.990Z,8.00
2023-03-20T17:37:03.277Z,7.10
2023-03-20T17:39:31.362Z,4.10
2023-03-20T17:41:59.302Z,32.50
2023-03-20T17:44:28.108Z,31.10
2023-03-20T17:46:58.891Z,10.00
2023-03-20T17:49:27.757Z,2.50
2023-03-20T17:51:56.706Z,4.70
2023-03-20T17:54:27.459Z,4.60
2023-03-20T17:56:55.397Z,2.50
2023-03-20T17:59:25.454Z,4.50
2023-03-20T18:01:53.230Z,3.60
2023-03-20T18:04:21.685Z,2.50
2023-03-20T18:06:49.776Z,2.90
2023-03-20T18:11:45.911Z,11.80
2023-03-20T18:14:18.221Z,3.40
2023-03-20T18:19:29.424Z,12.00
2023-03-20T18:22:04.530Z,10.00
2023-03-20T18:24:33.005Z,7.30
2023-03-20T18:27:02.003Z,4.00
2023-03-20T18:29:30.894Z,3.40
2023-03-20T18:32:07.665Z,10.50
2023-03-20T18:34:35.847Z,8.10
2023-03-20T18:37:10.598Z,5.70
2023-03-20T18:39:38.748Z,3.60
2023-03-20T18:42:07.840Z,7.30
2023-03-20T18:44:35.964Z,6.10
2023-03-20T18:47:03.857Z,7.70
2023-03-20T18:49:38.550Z,5.90
2023-03-20T18:52:07.231Z,8.70
2023-03-20T18:54:35.849Z,8.80
2023-03-20T18:57:03.853Z,6.60
2023-03-20T18:59:32.164Z,12.40
2023-03-20T19:02:00.289Z,7.30
2023-03-20T19:04:33.061Z,11.10
2023-03-20T19:07:03.276Z,3.30
2023-03-20T19:09:31.108Z,3.00
2023-03-20T19:11:59.109Z,2.70
2023-03-20T19:14:27.116Z,3.60
2023-03-20T19:16:54.877Z,13.90
2023-03-20T19:19:23.339Z,15.50
2023-03-20T19:21:51.554Z,11.50
2023-03-20T19:24:21.710Z,17.90
2023-03-20T19:26:50.601Z,25.60
2023-03-20T19:29:18.620Z,36.90
2023-03-20T19:31:46.812Z,19.00
2023-03-20T19:34:42.018Z,15.90
2023-03-20T19:37:07.153Z,9.60
2023-03-20T19:39:35.044Z,10.10
2023-03-20T19:42:29.336Z,9.50
2023-03-20T19:44:54.043Z,10.80
2023-03-20T19:47:21.938Z,4.80
2023-03-20T19:49:50.274Z,7.00
2023-03-20T19:52:32.594Z,7.00
2023-03-20T19:55:03.459Z,6.20
2023-03-20T19:57:31.588Z,8.90
2023-03-20T20:02:50.405Z,4.10
2023-03-20T20:05:32.337Z,4.10
2023-03-20T20:10:56.393Z,8.00
2023-03-20T20:13:43.849Z,7.40
2023-03-20T20:16:23.002Z,8.10
2023-03-20T20:18:53.457Z,6.20
2023-03-20T20:24:09.581Z,3.10
2023-03-20T20:26:41.298Z,6.80
2023-03-20T20:29:15.677Z,14.80
2023-03-20T20:31:44.534Z,6.10
2023-03-20T20:35:14.762Z,6.80
2023-03-20T20:37:42.772Z,2.70
2023-03-20T20:39:52.224Z,5.20
2023-03-20T20:42:21.943Z,5.80
2023-03-20T20:44:50.720Z,5.50
2023-03-20T20:47:18.826Z,6.30
2023-03-20T20:49:48.081Z,6.00
2023-03-20T20:52:16.226Z,6.20
2023-03-20T20:54:47.753Z,4.40
2023-03-20T20:57:16.448Z,4.20
2023-03-20T20:59:46.293Z,4.00
2023-03-20T21:02:17.639Z,4.10
2023-03-20T21:04:45.791Z,3.50
2023-03-20T21:07:13.936Z,6.90
2023-03-20T21:09:42.185Z,6.30
2023-03-20T21:12:22.663Z,4.70
2023-03-20T21:15:00.356Z,4.30
2023-03-20T21:17:29.279Z,5.10
2023-03-20T21:19:57.759Z,6.70
2023-03-20T21:22:28.382Z,6.00
2023-03-20T21:25:13.075Z,4.00
2023-03-20T21:27:42.485Z,3.80
2023-03-20T21:30:11.471Z,2.10
2023-03-20T21:32:40.385Z,3.80
2023-03-20T21:35:09.490Z,2.40
2023-03-20T21:40:28.020Z,8.80
2023-03-20T21:42:57.926Z,7.30
2023-03-20T21:46:30.176Z,6.40
2023-03-20T21:49:12.621Z,5.40
2023-03-20T21:57:37.221Z,7.70
2023-03-20T22:00:24.925Z,6.30
2023-03-20T22:02:35.320Z,4.40
2023-03-20T22:08:43.063Z,6.50
2023-03-20T22:11:34.964Z,11.50
2023-03-20T22:17:36.600Z,11.90
2023-03-20T22:20:07.726Z,8.30
2023-03-20T22:37:23.142Z,2.90
2023-03-20T22:44:58.917Z,16.50
2023-03-20T22:47:30.480Z,14.90
2023-03-20T22:49:59.384Z,7.70
2023-03-20T22:52:38.333Z,4.90
2023-03-20T22:55:18.770Z,3.90
2023-03-20T22:58:05.437Z,4.90
2023-03-20T23:00:37.450Z,2.80
2023-03-20T23:03:19.553Z,1.90
2023-03-20T23:05:55.361Z,2.80
2023-03-20T23:08:24.917Z,2.90
2023-03-20T23:10:53.390Z,2.60
2023-03-20T23:13:22.605Z,2.00
2023-03-20T23:15:51.236Z,2.70
2023-03-20T23:18:19.315Z,2.60
2023-03-20T23:20:47.612Z,6.00
2023-03-20T23:23:16.821Z,5.70
2023-03-20T23:25:44.636Z,7.40
2023-03-20T23:28:12.394Z,5.00
2023-03-20T23:30:56.798Z,4.70
2023-03-20T23:33:28.842Z,4.30
2023-03-20T23:36:12.461Z,7.70
2023-03-20T23:38:45.018Z,8.30
2023-03-20T23:41:14.867Z,9.10
2023-03-20T23:43:46.103Z,4.20
2023-03-20T23:46:14.906Z,5.30
2023-03-20T23:48:42.877Z,4.50
2023-03-20T23:51:14.346Z,4.50
2023-03-20T23:53:42.607Z,6.20
2023-03-20T23:56:14.864Z,6.30
2023-03-20T23:58:54.919Z,6.70
